Time;durP1;ratioP1;P1;durP2;ratioP2;P2;SDS_P1;SDS_P2;PMS_P1;PMS_P2;Temp;Humidity;BMP_temperature;BMP_pressure;BME280_temperature;BME280_humidity;BME280_pressure;Samples;Min_cycle;Max_cycle;Signal;HPM_P1;HPM_P2
2021/01/08 00:02:27;;;;;;;7.67;6.83;;;3.50;99.90;;;;;;4865287;28;20725;-63
2021/01/08 00:05:12;;;;;;;9.27;7.30;;;3.50;99.90;;;;;;4862636;28;21286;-63
2021/01/08 00:07:56;;;;;;;9.33;7.30;;;3.50;99.90;;;;;;4867435;29;20793;-63
2021/01/08 00:10:41;;;;;;;9.87;8.20;;;3.40;99.90;;;;;;4876285;28;20690;-63
2021/01/08 00:13:25;;;;;;;9.30;7.43;;;3.40;99.90;;;;;;4861382;28;20730;-63
2021/01/08 00:16:10;;;;;;;8.07;6.87;;;3.40;99.90;;;;;;4864888;29;20617;-63
2021/01/08 00:18:54;;;;;;;9.03;6.87;;;3.40;99.90;;;;;;4859366;28;20698;-62
2021/01/08 00:21:42;;;;;;;10.37;7.63;;;3.40;99.90;;;;;;4851375;29;21179;-63
2021/01/08 00:24:27;;;;;;;8.03;7.17;;;3.40;99.90;;;;;;4872811;29;21232;-65
2021/01/08 00:27:11;;;;;;;7.77;6.87;;;3.40;99.90;;;;;;4862378;28;21224;-65
2021/01/08 00:29:56;;;;;;;7.60;6.43;;;3.40;99.90;;;;;;4865358;29;20673;-66
2021/01/08 00:32:40;;;;;;;7.27;6.57;;;3.40;99.90;;;;;;4873278;28;20727;-65
2021/01/08 00:35:24;;;;;;;10.20;7.20;;;3.40;99.90;;;;;;4860648;28;20614;-65
2021/01/08 00:38:09;;;;;;;9.30;7.00;;;3.40;99.90;;;;;;4870308;29;20594;-65
2021/01/08 00:40:53;;;;;;;9.03;7.13;;;3.40;99.90;;;;;;4874749;29;20988;-65
2021/01/08 00:43:38;;;;;;;7.87;6.20;;;3.40;99.90;;;;;;4857360;28;20641;-65
2021/01/08 00:46:33;;;;;;;7.67;6.73;;;3.40;99.90;;;;;;4866231;28;20602;-65
2021/01/08 00:49:19;;;;;;;8.43;6.73;;;3.30;99.90;;;;;;4871683;28;20971;-65
2021/01/08 00:52:04;;;;;;;8.70;6.67;;;3.30;99.90;;;;;;4854984;28;20635;-66
2021/01/08 00:54:50;;;;;;;8.63;6.83;;;3.30;99.90;;;;;;4911444;28;20622;-67
2021/01/08 00:57:34;;;;;;;7.90;6.77;;;3.30;99.90;;;;;;4859446;28;20604;-65
2021/01/08 01:00:22;;;;;;;9.37;6.40;;;3.30;99.90;;;;;;4923975;28;20637;-65
2021/01/08 01:03:06;;;;;;;8.03;6.40;;;3.30;99.90;;;;;;4868287;28;20670;-65
2021/01/08 01:05:51;;;;;;;8.47;6.67;;;3.30;99.90;;;;;;4862760;28;20606;-67
2021/01/08 01:08:35;;;;;;;7.60;5.50;;;3.30;99.90;;;;;;4868451;28;20598;-65
2021/01/08 01:11:21;;;;;;;6.20;5.60;;;3.30;99.90;;;;;;4868542;29;21064;-65
2021/01/08 01:14:06;;;;;;;5.20;4.70;;;3.30;99.90;;;;;;4872904;28;21091;-65
2021/01/08 01:16:51;;;;;;;6.13;4.90;;;3.30;99.90;;;;;;4870214;29;20594;-66
2021/01/08 01:19:35;;;;;;;4.70;4.20;;;3.30;99.90;;;;;;4871035;28;20810;-65
2021/01/08 01:22:20;;;;;;;4.43;4.03;;;3.30;99.90;;;;;;4866425;28;20638;-65
2021/01/08 01:25:08;;;;;;;4.43;3.73;;;3.30;99.90;;;;;;4872568;29;20617;-65
2021/01/08 01:27:53;;;;;;;4.43;3.93;;;3.30;99.90;;;;;;4917237;28;21200;-65
2021/01/08 01:30:37;;;;;;;4.03;3.63;;;3.30;99.90;;;;;;4869517;29;20669;-65
2021/01/08 01:33:21;;;;;;;4.27;3.83;;;3.40;99.90;;;;;;4872068;29;20642;-66
2021/01/08 01:36:08;;;;;;;3.97;3.60;;;3.30;99.90;;;;;;4869255;28;20626;-65
2021/01/08 01:38:55;;;;;;;4.80;4.30;;;3.40;99.90;;;;;;4868124;28;20733;-65
2021/01/08 01:41:41;;;;;;;4.53;4.10;;;3.30;99.90;;;;;;4868009;28;20751;-66
2021/01/08 01:44:26;;;;;;;4.73;4.23;;;3.30;99.90;;;;;;4866145;29;20677;-65
2021/01/08 01:47:13;;;;;;;4.37;3.60;;;3.30;99.90;;;;;;4869748;28;20936;-65
2021/01/08 01:49:58;;;;;;;4.17;3.77;;;3.30;99.90;;;;;;4863484;28;20669;-67
2021/01/08 01:52:42;;;;;;;4.73;4.20;;;3.30;99.90;;;;;;4867080;28;20636;-65
2021/01/08 01:55:31;;;;;;;5.40;4.10;;;3.30;99.90;;;;;;4873288;28;20690;-65
2021/01/08 01:58:17;;;;;;;4.17;3.77;;;3.40;99.90;;;;;;4920705;28;20739;-65
2021/01/08 02:01:02;;;;;;;5.27;4.43;;;3.40;99.90;;;;;;4862407;28;20783;-65
2021/01/08 02:03:51;;;;;;;4.93;3.90;;;3.40;99.90;;;;;;4858356;28;20749;-65
2021/01/08 02:06:38;;;;;;;4.47;3.73;;;3.30;99.90;;;;;;4922146;28;20646;-65
2021/01/08 02:09:23;;;;;;;4.90;4.20;;;3.30;99.90;;;;;;4890664;28;21155;-65
2021/01/08 02:12:12;;;;;;;4.77;4.03;;;3.40;99.90;;;;;;4866997;28;20783;-65
2021/01/08 02:14:59;;;;;;;4.10;3.70;;;3.40;99.90;;;;;;4862906;28;20621;-65
2021/01/08 02:17:44;;;;;;;5.40;4.30;;;3.30;99.90;;;;;;4862494;28;20621;-67
2021/01/08 02:20:30;;;;;;;5.40;4.33;;;3.30;99.90;;;;;;4868907;29;20721;-66
2021/01/08 02:23:38;;;;;;;4.93;4.10;;;3.30;99.90;;;;;;4860985;28;20662;-65
2021/01/08 02:26:24;;;;;;;5.27;4.63;;;3.40;99.90;;;;;;4861228;28;20605;-65
2021/01/08 02:29:11;;;;;;;6.10;4.80;;;3.40;99.90;;;;;;4864691;28;20994;-66
2021/01/08 02:31:56;;;;;;;5.50;4.60;;;3.30;99.90;;;;;;4869741;28;20634;-65
2021/01/08 02:34:41;;;;;;;5.20;4.70;;;3.30;99.90;;;;;;4922164;28;20790;-65
2021/01/08 02:37:25;;;;;;;6.40;5.07;;;3.30;99.90;;;;;;4871984;28;20633;-65
2021/01/08 02:40:12;;;;;;;6.20;4.70;;;3.40;99.90;;;;;;4868088;29;20650;-65
2021/01/08 02:43:04;;;;;;;5.60;4.80;;;3.40;99.90;;;;;;4866270;28;21260;-65
2021/01/08 02:45:50;;;;;;;5.83;4.80;;;3.40;99.90;;;;;;4868572;28;20619;-66
2021/01/08 02:48:35;;;;;;;5.97;4.87;;;3.30;99.90;;;;;;4855440;28;20798;-66
2021/01/08 02:51:20;;;;;;;6.00;4.97;;;3.30;99.90;;;;;;4865100;28;20669;-65
2021/01/08 02:54:06;;;;;;;7.20;5.50;;;3.40;99.90;;;;;;4856822;28;20681;-65
2021/01/08 02:56:53;;;;;;;5.70;4.67;;;3.30;99.90;;;;;;4872512;28;20634;-65
2021/01/08 02:59:41;;;;;;;5.93;4.70;;;3.30;99.90;;;;;;4865250;29;20639;-66
2021/01/08 03:02:26;;;;;;;5.20;4.40;;;3.30;99.90;;;;;;4866275;28;21199;-66
2021/01/08 03:05:11;;;;;;;6.33;4.83;;;3.30;99.90;;;;;;4863894;28;20631;-65
2021/01/08 03:07:57;;;;;;;6.40;4.57;;;3.30;99.90;;;;;;4868557;29;20618;-65
2021/01/08 03:10:42;;;;;;;6.90;5.30;;;3.40;99.90;;;;;;4871390;28;20666;-66
2021/01/08 03:13:31;;;;;;;7.33;5.90;;;3.30;99.90;;;;;;4857328;28;20655;-66
2021/01/08 03:16:15;;;;;;;6.93;5.10;;;3.30;99.90;;;;;;4866545;29;20643;-65
2021/01/08 03:19:00;;;;;;;7.13;5.47;;;3.30;99.90;;;;;;4871036;28;20609;-66
2021/01/08 03:21:44;;;;;;;6.47;4.90;;;3.30;99.90;;;;;;4867001;28;20602;-65
2021/01/08 03:24:29;;;;;;;6.17;4.57;;;3.40;99.90;;;;;;4862247;28;20646;-65
2021/01/08 03:27:13;;;;;;;6.47;5.13;;;3.30;99.90;;;;;;4857891;28;20855;-65
2021/01/08 03:30:00;;;;;;;6.33;4.90;;;3.30;99.90;;;;;;4867243;28;21157;-66
2021/01/08 03:32:47;;;;;;;6.70;5.13;;;3.30;99.90;;;;;;4860128;28;20658;-65
2021/01/08 03:35:34;;;;;;;6.80;5.00;;;3.30;99.90;;;;;;4869415;28;20607;-66
2021/01/08 03:38:21;;;;;;;7.70;5.77;;;3.30;99.90;;;;;;4913857;28;20607;-65
2021/01/08 03:41:06;;;;;;;6.93;5.27;;;3.40;99.90;;;;;;4856473;28;20694;-65
2021/01/08 03:43:50;;;;;;;6.73;4.90;;;3.30;99.90;;;;;;4864660;28;21331;-65
2021/01/08 03:46:37;;;;;;;6.03;4.77;;;3.30;99.90;;;;;;4860586;28;20658;-66
2021/01/08 03:49:22;;;;;;;8.57;5.40;;;3.40;99.90;;;;;;4882310;28;20614;-65
2021/01/08 03:52:09;;;;;;;6.57;4.90;;;3.30;99.90;;;;;;4864187;28;20723;-65
2021/01/08 03:54:55;;;;;;;5.97;4.97;;;3.30;99.90;;;;;;4859258;29;20591;-65
2021/01/08 03:57:42;;;;;;;8.13;5.73;;;3.30;99.90;;;;;;4863273;28;20625;-65
2021/01/08 04:00:31;;;;;;;6.27;5.00;;;3.30;99.90;;;;;;4910720;28;20794;-66
2021/01/08 04:03:18;;;;;;;6.90;4.60;;;3.30;99.90;;;;;;4871007;28;20714;-66
2021/01/08 04:06:03;;;;;;;6.57;4.97;;;3.20;99.90;;;;;;4864724;28;20629;-66
2021/01/08 04:08:47;;;;;;;7.83;5.90;;;3.20;99.90;;;;;;4891693;28;20606;-65
2021/01/08 04:11:33;;;;;;;8.27;5.43;;;3.20;99.90;;;;;;4872663;28;21211;-66
2021/01/08 04:14:17;;;;;;;5.37;4.30;;;3.20;99.90;;;;;;4867765;28;20658;-66
2021/01/08 04:17:02;;;;;;;6.60;4.97;;;3.20;99.90;;;;;;4919511;28;20610;-65
2021/01/08 04:19:46;;;;;;;8.57;5.10;;;3.20;99.90;;;;;;4866628;28;21244;-66
2021/01/08 04:22:31;;;;;;;7.07;5.70;;;3.20;99.90;;;;;;4860597;28;20722;-65
2021/01/08 04:25:15;;;;;;;6.70;5.47;;;3.20;99.90;;;;;;4866769;28;20972;-66
2021/01/08 04:28:00;;;;;;;7.53;5.40;;;3.30;99.90;;;;;;4866588;28;21192;-63
2021/01/08 04:30:44;;;;;;;9.10;5.80;;;3.30;99.90;;;;;;4869870;28;21063;-65
2021/01/08 04:33:29;;;;;;;8.67;5.87;;;3.30;99.90;;;;;;4861413;28;21286;-64
2021/01/08 04:36:13;;;;;;;8.00;5.50;;;3.30;99.90;;;;;;4864497;29;20629;-64
2021/01/08 04:38:58;;;;;;;10.87;7.07;;;3.30;99.90;;;;;;4858884;28;20674;-64
2021/01/08 04:41:43;;;;;;;9.20;6.27;;;3.30;99.90;;;;;;4861433;28;20646;-63
2021/01/08 04:44:28;;;;;;;7.80;5.87;;;3.30;99.90;;;;;;4864587;29;20899;-64
2021/01/08 04:47:14;;;;;;;10.00;7.20;;;3.30;99.90;;;;;;4862626;28;20612;-64
2021/01/08 04:50:05;;;;;;;9.87;6.90;;;3.30;99.90;;;;;;4869777;28;20705;-64
2021/01/08 04:52:50;;;;;;;11.13;7.63;;;3.30;99.90;;;;;;4859014;28;20651;-65
2021/01/08 04:55:38;;;;;;;8.80;6.40;;;3.30;99.90;;;;;;4863233;29;20590;-65
2021/01/08 04:58:25;;;;;;;8.40;6.47;;;3.30;99.90;;;;;;4870681;28;20598;-65
2021/01/08 05:01:09;;;;;;;10.53;7.20;;;3.20;99.90;;;;;;4920807;28;20656;-64
2021/01/08 05:03:54;;;;;;;10.27;7.47;;;3.20;99.90;;;;;;4863549;28;20805;-64
2021/01/08 05:06:38;;;;;;;8.77;6.53;;;3.20;99.90;;;;;;4867034;29;20645;-65
2021/01/08 05:09:23;;;;;;;9.90;6.63;;;3.20;99.90;;;;;;4870491;28;21309;-64
2021/01/08 05:12:09;;;;;;;10.77;7.70;;;3.20;99.90;;;;;;4861182;28;20704;-64
2021/01/08 05:14:54;;;;;;;10.33;6.77;;;3.20;99.90;;;;;;4862825;28;21038;-64
2021/01/08 05:17:40;;;;;;;8.50;6.70;;;3.20;99.90;;;;;;4874299;28;21176;-65
2021/01/08 05:20:24;;;;;;;11.30;6.80;;;3.20;99.90;;;;;;4861460;29;20630;-65
2021/01/08 05:23:10;;;;;;;10.53;6.83;;;3.20;99.90;;;;;;4867369;28;20654;-64
2021/01/08 05:25:55;;;;;;;11.00;7.43;;;3.10;99.90;;;;;;4874789;28;20987;-65
2021/01/08 05:28:46;;;;;;;10.70;6.83;;;3.10;99.90;;;;;;4865752;28;20763;-64
2021/01/08 05:31:33;;;;;;;10.73;7.30;;;3.20;99.90;;;;;;4873035;29;20629;-65
2021/01/08 05:34:28;;;;;;;11.20;8.10;;;3.20;99.90;;;;;;4866814;28;20653;-64
2021/01/08 05:37:16;;;;;;;11.10;7.13;;;3.30;99.90;;;;;;4872166;28;20623;-64
2021/01/08 05:40:03;;;;;;;11.03;7.03;;;3.30;99.90;;;;;;4873540;28;20721;-65
2021/01/08 05:42:59;;;;;;;12.50;7.60;;;3.20;99.90;;;;;;4863410;28;20642;-64
2021/01/08 05:45:46;;;;;;;10.87;7.70;;;3.20;99.90;;;;;;4872966;28;20957;-64
2021/01/08 05:48:32;;;;;;;9.80;6.80;;;3.30;99.90;;;;;;4863864;28;20618;-63
2021/01/08 05:51:18;;;;;;;10.70;7.10;;;3.30;99.90;;;;;;4867334;28;21307;-64
2021/01/08 05:54:05;;;;;;;11.63;7.90;;;3.20;99.90;;;;;;4861251;28;20717;-65
2021/01/08 05:56:52;;;;;;;12.43;7.53;;;3.30;99.90;;;;;;4847728;28;22215;-65
2021/01/08 05:59:38;;;;;;;10.93;7.13;;;3.30;99.90;;;;;;4853975;28;20646;-64
2021/01/08 06:02:23;;;;;;;12.40;8.07;;;3.30;99.90;;;;;;4883939;28;20646;-65
2021/01/08 06:05:10;;;;;;;11.07;8.50;;;3.30;99.90;;;;;;4852732;28;21027;-64
2021/01/08 06:07:59;;;;;;;11.73;7.77;;;3.30;99.90;;;;;;4865370;28;20595;-64
2021/01/08 06:10:44;;;;;;;11.07;7.47;;;3.30;99.90;;;;;;4843109;29;589259;-64
2021/01/08 06:13:34;;;;;;;11.37;8.00;;;3.30;99.90;;;;;;4857941;28;20650;-64
2021/01/08 06:16:23;;;;;;;11.00;8.13;;;3.40;99.90;;;;;;4865034;28;20595;-65
2021/01/08 06:19:10;;;;;;;10.77;7.60;;;3.30;99.90;;;;;;4922635;28;20655;-64
2021/01/08 06:21:59;;;;;;;11.67;8.10;;;3.30;99.90;;;;;;4865009;29;20626;-65
2021/01/08 06:24:53;;;;;;;10.97;7.90;;;3.30;99.90;;;;;;4872759;28;20670;-63
2021/01/08 06:27:44;;;;;;;12.63;8.47;;;3.40;99.90;;;;;;4867235;28;20676;-62
2021/01/08 06:30:36;;;;;;;12.10;8.27;;;3.30;99.90;;;;;;4877058;28;21255;-62
2021/01/08 06:33:26;;;;;;;11.60;7.90;;;3.50;99.90;;;;;;4864181;28;20650;-62
2021/01/08 06:36:19;;;;;;;11.23;7.90;;;3.30;99.90;;;;;;4860227;28;21431;-62
2021/01/08 06:39:06;;;;;;;11.63;8.10;;;3.40;99.90;;;;;;4851003;28;21119;-63
2021/01/08 06:41:55;;;;;;;11.77;8.87;;;3.40;99.90;;;;;;4873740;28;20729;-61
2021/01/08 06:44:40;;;;;;;12.37;7.77;;;3.30;99.90;;;;;;4850400;28;21199;-61
2021/01/08 06:47:31;;;;;;;12.80;8.50;;;3.40;99.90;;;;;;4861363;29;20642;-62
2021/01/08 06:50:20;;;;;;;12.60;8.83;;;3.30;99.90;;;;;;4859600;28;20661;-62
2021/01/08 06:53:11;;;;;;;12.07;8.70;;;3.40;99.90;;;;;;4864189;28;20951;-62
2021/01/08 06:56:02;;;;;;;14.37;9.40;;;3.40;99.90;;;;;;4848897;28;20618;-63
2021/01/08 06:58:56;;;;;;;13.93;8.20;;;3.50;99.90;;;;;;4835393;28;21330;-62
2021/01/08 07:01:41;;;;;;;11.77;8.20;;;3.40;99.90;;;;;;4834973;28;20622;-63
2021/01/08 07:04:27;;;;;;;12.60;9.30;;;3.40;99.90;;;;;;4816534;28;20786;-63
2021/01/08 07:07:14;;;;;;;13.03;8.37;;;3.40;99.90;;;;;;4822755;28;21061;-62
2021/01/08 07:10:03;;;;;;;13.80;9.30;;;3.40;99.90;;;;;;4837679;28;20724;-63
2021/01/08 07:12:53;;;;;;;13.40;9.03;;;3.40;99.90;;;;;;4835437;28;20693;-62
2021/01/08 07:15:41;;;;;;;12.20;8.90;;;3.50;99.90;;;;;;4837876;28;20633;-62
2021/01/08 07:18:28;;;;;;;13.57;9.23;;;3.50;99.90;;;;;;4840345;28;20601;-62
2021/01/08 07:21:25;;;;;;;14.10;8.97;;;3.40;99.90;;;;;;4854076;28;20654;-61
2021/01/08 07:24:15;;;;;;;14.97;9.87;;;3.50;99.90;;;;;;4858535;28;21075;-63
2021/01/08 07:27:16;;;;;;;14.70;10.20;;;3.40;99.90;;;;;;4873381;28;20683;-62
2021/01/08 07:30:03;;;;;;;13.43;9.50;;;3.40;99.90;;;;;;4865127;28;20665;-63
2021/01/08 07:32:51;;;;;;;12.70;9.13;;;3.30;99.90;;;;;;4861795;28;21287;-63
2021/01/08 07:35:41;;;;;;;13.70;9.37;;;3.30;99.90;;;;;;4855204;28;20714;-62
2021/01/08 07:38:33;;;;;;;13.90;9.63;;;3.40;99.90;;;;;;4911507;28;21028;-61
2021/01/08 07:41:38;;;;;;;13.10;8.80;;;3.40;99.90;;;;;;4860551;28;20670;-63
2021/01/08 07:44:31;;;;;;;15.80;10.40;;;3.40;99.90;;;;;;4855916;28;20696;-62
2021/01/08 07:47:26;;;;;;;14.57;9.60;;;3.40;99.90;;;;;;4850418;28;20635;-63
2021/01/08 07:50:13;;;;;;;14.07;9.77;;;3.40;99.90;;;;;;4863498;28;20664;-62
2021/01/08 07:53:00;;;;;;;14.87;9.83;;;3.40;99.90;;;;;;4856779;28;20892;-63
2021/01/08 07:55:45;;;;;;;17.90;10.67;;;3.40;99.90;;;;;;4855141;28;20610;-63
2021/01/08 07:58:31;;;;;;;17.43;10.17;;;3.40;99.90;;;;;;4859957;28;20728;-62
2021/01/08 08:01:17;;;;;;;15.77;10.30;;;3.40;99.90;;;;;;4858463;28;20657;-63
2021/01/08 08:04:07;;;;;;;16.20;11.47;;;3.40;99.90;;;;;;4854118;28;20778;-63
2021/01/08 08:06:52;;;;;;;15.80;10.73;;;3.50;99.90;;;;;;4860005;28;20622;-61
2021/01/08 08:09:37;;;;;;;15.63;10.40;;;3.40;99.90;;;;;;4854388;28;20727;-62
2021/01/08 08:12:22;;;;;;;15.20;10.60;;;3.40;99.90;;;;;;4858034;28;20725;-63
2021/01/08 08:15:07;;;;;;;15.07;10.30;;;3.40;99.90;;;;;;4862900;28;21237;-63
2021/01/08 08:17:51;;;;;;;15.50;10.37;;;3.40;99.90;;;;;;4867719;28;20682;-63
2021/01/08 08:20:36;;;;;;;15.77;10.10;;;3.50;99.90;;;;;;4862691;29;20673;-62
2021/01/08 08:23:20;;;;;;;17.13;10.77;;;3.50;99.90;;;;;;4858789;28;20668;-63
2021/01/08 08:26:05;;;;;;;18.23;10.80;;;3.60;99.90;;;;;;4858880;28;21086;-63
2021/01/08 08:29:05;;;;;;;16.00;10.17;;;3.50;99.90;;;;;;4857248;28;20614;-62
2021/01/08 08:31:51;;;;;;;17.87;11.00;;;3.50;99.90;;;;;;4860636;28;20626;-62
2021/01/08 08:34:36;;;;;;;16.67;10.80;;;3.50;99.90;;;;;;4850992;28;23479;-62
2021/01/08 08:37:23;;;;;;;16.80;10.83;;;3.60;99.90;;;;;;4855990;28;20595;-62
2021/01/08 08:40:08;;;;;;;16.77;11.43;;;3.60;99.90;;;;;;4875898;28;20669;-62
2021/01/08 08:42:57;;;;;;;16.20;11.03;;;3.50;99.90;;;;;;4864281;28;20678;-63
2021/01/08 08:45:41;;;;;;;18.00;11.10;;;3.60;99.90;;;;;;4861785;28;20610;-63
2021/01/08 08:48:25;;;;;;;16.13;10.70;;;3.70;99.90;;;;;;4882806;28;20602;-62
2021/01/08 08:51:10;;;;;;;16.93;11.20;;;3.60;99.90;;;;;;4920421;28;20661;-63
2021/01/08 08:53:58;;;;;;;17.40;11.87;;;3.50;99.90;;;;;;4861116;28;20686;-62
2021/01/08 08:56:50;;;;;;;17.03;10.90;;;3.60;99.90;;;;;;4860000;28;20602;-63
2021/01/08 08:59:45;;;;;;;16.23;10.90;;;3.60;99.90;;;;;;4863736;28;20970;-62
2021/01/08 09:02:30;;;;;;;16.20;10.93;;;3.60;99.90;;;;;;4863704;28;20658;-62
2021/01/08 09:05:14;;;;;;;16.80;11.23;;;3.60;99.90;;;;;;4862879;28;21234;-62
2021/01/08 09:08:08;;;;;;;16.57;10.53;;;3.60;99.90;;;;;;4874460;28;20979;-63
2021/01/08 09:11:21;;;;;;;17.20;11.10;;;3.60;99.90;;;;;;4876662;28;21024;-63
2021/01/08 09:14:13;;;;;;;18.90;12.90;;;3.60;99.90;;;;;;4869550;28;20669;-62
2021/01/08 09:17:06;;;;;;;17.07;10.33;;;3.70;99.90;;;;;;4860133;29;20629;-62
2021/01/08 09:20:00;;;;;;;15.20;11.63;;;3.80;99.90;;;;;;4880989;28;20657;-62
2021/01/08 09:22:45;;;;;;;16.67;11.37;;;3.80;99.90;;;;;;4864642;28;20713;-62
2021/01/08 09:25:32;;;;;;;14.90;10.43;;;3.70;99.90;;;;;;4928864;29;20621;-63
2021/01/08 09:28:17;;;;;;;17.63;11.30;;;3.70;99.90;;;;;;4877965;28;20621;-63
2021/01/08 09:31:02;;;;;;;16.63;10.70;;;3.80;99.90;;;;;;4925186;28;20671;-63
2021/01/08 09:33:59;;;;;;;15.67;10.60;;;3.80;99.90;;;;;;4871090;28;21371;-63
2021/01/08 09:36:47;;;;;;;15.23;10.47;;;3.80;99.90;;;;;;4874418;29;20606;-62
2021/01/08 09:39:35;;;;;;;16.30;11.37;;;3.80;99.90;;;;;;4878699;28;20637;-63
2021/01/08 09:42:20;;;;;;;14.67;10.17;;;3.70;99.90;;;;;;4872264;28;21316;-63
2021/01/08 09:45:21;;;;;;;18.43;10.70;;;3.70;99.90;;;;;;4883275;28;20593;-63
2021/01/08 09:48:20;;;;;;;14.33;10.70;;;3.70;99.90;;;;;;4875096;28;20692;-63
2021/01/08 09:51:06;;;;;;;14.23;9.90;;;3.70;99.90;;;;;;4872623;28;21311;-63
2021/01/08 09:53:55;;;;;;;16.00;11.07;;;3.70;99.90;;;;;;4862187;28;20598;-63
2021/01/08 09:56:41;;;;;;;12.97;9.47;;;3.70;99.90;;;;;;4860426;28;20598;-62
2021/01/08 09:59:26;;;;;;;13.60;10.03;;;3.70;99.90;;;;;;4861328;28;20626;-63
2021/01/08 10:02:11;;;;;;;17.97;10.00;;;3.70;99.90;;;;;;4861716;28;20590;-63
2021/01/08 10:04:56;;;;;;;16.77;11.13;;;3.70;99.90;;;;;;4867415;28;20629;-63
2021/01/08 10:07:41;;;;;;;13.10;10.13;;;3.70;99.90;;;;;;4866240;28;21191;-63
2021/01/08 10:10:26;;;;;;;15.70;10.03;;;3.70;99.90;;;;;;4864105;28;20654;-63
2021/01/08 10:13:19;;;;;;;14.60;10.23;;;3.70;99.90;;;;;;4874509;28;21157;-63
2021/01/08 10:16:10;;;;;;;15.33;10.10;;;3.70;99.90;;;;;;4862031;28;20591;-62
2021/01/08 10:19:04;;;;;;;16.13;10.53;;;3.70;99.90;;;;;;4863448;28;20613;-62
2021/01/08 10:21:48;;;;;;;14.87;10.43;;;3.80;99.90;;;;;;4867821;28;20750;-62
2021/01/08 10:24:35;;;;;;;16.13;10.03;;;3.80;99.90;;;;;;4860524;28;20787;-63
2021/01/08 10:27:23;;;;;;;14.03;9.80;;;3.70;99.90;;;;;;4859862;28;21220;-63
2021/01/08 10:30:08;;;;;;;14.17;10.00;;;3.60;99.90;;;;;;4860606;28;20639;-63
2021/01/08 10:32:53;;;;;;;15.20;10.77;;;3.60;99.90;;;;;;4852081;28;20813;-63
2021/01/08 10:35:40;;;;;;;14.23;10.53;;;3.70;99.90;;;;;;4860542;28;20635;-62
2021/01/08 10:38:25;;;;;;;14.80;10.13;;;3.60;99.90;;;;;;4864164;28;20605;-63
2021/01/08 10:41:18;;;;;;;14.57;9.87;;;3.60;99.90;;;;;;4865116;28;20645;-63
2021/01/08 10:44:02;;;;;;;14.00;10.30;;;3.60;99.90;;;;;;4862501;28;20646;-63
2021/01/08 10:46:47;;;;;;;13.90;9.20;;;3.60;99.90;;;;;;4866892;28;21172;-62
2021/01/08 10:49:32;;;;;;;17.13;11.00;;;3.50;99.90;;;;;;4864781;28;20650;-63
2021/01/08 10:52:16;;;;;;;15.93;11.20;;;3.70;99.90;;;;;;4864223;28;20630;-63
2021/01/08 10:55:01;;;;;;;15.40;10.63;;;3.70;99.90;;;;;;4852913;29;20626;-63
2021/01/08 10:57:46;;;;;;;13.40;9.90;;;3.70;99.90;;;;;;4859320;28;20605;-63
2021/01/08 11:00:30;;;;;;;13.20;9.40;;;3.70;99.90;;;;;;4859657;28;20665;-63
2021/01/08 11:03:14;;;;;;;12.77;9.63;;;3.60;99.90;;;;;;4848683;28;20643;-62
2021/01/08 11:05:59;;;;;;;14.63;10.20;;;3.60;99.90;;;;;;4862456;28;20626;-63
2021/01/08 11:08:44;;;;;;;14.70;9.93;;;3.60;99.90;;;;;;4866664;28;20641;-63
2021/01/08 11:11:29;;;;;;;13.33;9.93;;;3.70;99.90;;;;;;4877026;28;20672;-66
2021/01/08 11:14:13;;;;;;;14.00;9.90;;;3.70;99.90;;;;;;4865953;28;21289;-68
2021/01/08 11:16:59;;;;;;;15.23;9.57;;;3.60;99.90;;;;;;4876385;28;20982;-65
2021/01/08 11:19:43;;;;;;;15.20;9.67;;;3.60;99.90;;;;;;4883083;28;20650;-63
2021/01/08 11:22:28;;;;;;;14.83;9.50;;;3.60;99.90;;;;;;4876080;28;20709;-63
2021/01/08 11:25:14;;;;;;;13.77;10.17;;;3.60;99.90;;;;;;4869722;28;21053;-63
2021/01/08 11:27:58;;;;;;;13.70;9.73;;;3.60;99.90;;;;;;4874064;28;21223;-63
2021/01/08 11:30:43;;;;;;;16.43;10.10;;;3.70;99.90;;;;;;4878861;28;20728;-63
2021/01/08 11:33:27;;;;;;;14.60;9.43;;;3.60;99.90;;;;;;4873912;28;20646;-64
2021/01/08 11:36:13;;;;;;;14.13;9.73;;;3.60;99.90;;;;;;4872402;28;20621;-63
2021/01/08 11:38:57;;;;;;;13.10;9.57;;;3.70;99.90;;;;;;4863871;28;20694;-62
2021/01/08 11:41:42;;;;;;;14.73;10.00;;;3.80;99.90;;;;;;4860050;28;20688;-61
2021/01/08 11:44:26;;;;;;;14.57;10.10;;;3.80;99.90;;;;;;4863751;28;20646;-62
2021/01/08 11:47:11;;;;;;;13.80;10.37;;;3.80;99.90;;;;;;4863034;28;20670;-65
2021/01/08 11:49:55;;;;;;;12.83;9.07;;;3.90;99.90;;;;;;4860707;28;21021;-68
2021/01/08 11:52:40;;;;;;;12.80;9.93;;;3.90;99.90;;;;;;4862597;28;21367;-69
2021/01/08 11:55:24;;;;;;;13.73;10.27;;;3.90;99.90;;;;;;4867272;28;20614;-69
2021/01/08 11:58:09;;;;;;;12.10;8.80;;;3.90;99.90;;;;;;4864097;28;21194;-68
2021/01/08 12:00:56;;;;;;;13.30;8.80;;;3.80;99.90;;;;;;4860504;28;20700;-67
2021/01/08 12:03:41;;;;;;;12.10;9.03;;;3.70;99.90;;;;;;4853579;28;20653;-67
2021/01/08 12:06:30;;;;;;;12.70;8.73;;;3.70;99.90;;;;;;4854762;28;20750;-65
2021/01/08 12:09:15;;;;;;;15.50;9.57;;;3.70;99.90;;;;;;4856359;28;20626;-64
2021/01/08 12:12:01;;;;;;;12.50;9.27;;;3.90;99.90;;;;;;4857266;28;21446;-66
2021/01/08 12:14:45;;;;;;;10.67;8.20;;;3.80;99.90;;;;;;4856368;28;20619;-64
2021/01/08 12:17:29;;;;;;;11.93;8.53;;;3.90;99.90;;;;;;4852611;28;21039;-65
2021/01/08 12:20:14;;;;;;;13.10;9.13;;;3.90;99.90;;;;;;4849032;28;20646;-65
2021/01/08 12:22:59;;;;;;;13.83;10.33;;;3.90;99.90;;;;;;4852523;28;20775;-71
2021/01/08 12:25:44;;;;;;;12.57;9.33;;;3.90;99.90;;;;;;4852206;28;20601;-68
2021/01/08 12:28:29;;;;;;;12.07;9.17;;;3.80;99.90;;;;;;4852320;28;21165;-68
2021/01/08 12:31:14;;;;;;;13.27;8.70;;;3.60;99.90;;;;;;4851544;28;20793;-74
2021/01/08 12:33:58;;;;;;;12.87;9.03;;;3.60;99.90;;;;;;4861532;28;20666;-71
2021/01/08 12:36:43;;;;;;;11.80;9.73;;;3.70;99.90;;;;;;4855896;28;21590;-71
2021/01/08 12:39:28;;;;;;;12.97;9.10;;;3.70;99.90;;;;;;4851994;28;21042;-64
2021/01/08 12:42:13;;;;;;;13.03;9.63;;;3.80;99.90;;;;;;4852279;28;21215;-70
2021/01/08 12:44:57;;;;;;;12.47;8.97;;;3.80;99.90;;;;;;4838375;28;20675;-70
2021/01/08 12:47:42;;;;;;;10.47;8.40;;;3.80;99.90;;;;;;4852426;28;20630;-70
2021/01/08 12:50:28;;;;;;;10.90;8.60;;;3.90;99.90;;;;;;4852801;28;20662;-70
2021/01/08 12:53:13;;;;;;;10.60;8.40;;;3.90;99.90;;;;;;4860194;28;21307;-70
2021/01/08 12:55:58;;;;;;;10.07;8.60;;;3.90;99.90;;;;;;4858747;28;20602;-71
2021/01/08 12:58:42;;;;;;;12.43;9.07;;;3.90;99.90;;;;;;4858447;28;20777;-71
2021/01/08 13:01:27;;;;;;;9.90;8.30;;;3.80;99.90;;;;;;4860496;28;20694;-67
2021/01/08 13:04:11;;;;;;;11.77;9.20;;;3.70;99.90;;;;;;4863800;28;21019;-69
2021/01/08 13:06:56;;;;;;;10.90;8.30;;;3.80;99.90;;;;;;4856588;28;20625;-71
2021/01/08 13:09:41;;;;;;;9.83;8.17;;;3.70;99.90;;;;;;4840567;28;20718;-73
2021/01/08 13:12:26;;;;;;;11.70;9.30;;;3.70;99.90;;;;;;4853935;28;20665;-71
2021/01/08 13:15:11;;;;;;;10.57;8.50;;;3.70;99.90;;;;;;4856611;28;20677;-71
2021/01/08 13:17:55;;;;;;;13.13;8.70;;;3.80;99.90;;;;;;4856869;28;21514;-71
2021/01/08 13:20:40;;;;;;;10.67;7.83;;;3.80;99.90;;;;;;4912744;28;20674;-70
2021/01/08 13:23:24;;;;;;;10.23;8.27;;;3.80;99.90;;;;;;4854494;28;20654;-70
2021/01/08 13:26:09;;;;;;;10.93;8.20;;;3.90;99.90;;;;;;4856170;28;20678;-71
2021/01/08 13:28:54;;;;;;;12.00;8.67;;;3.80;99.90;;;;;;4856599;28;20722;-70
2021/01/08 13:31:42;;;;;;;11.57;8.63;;;3.80;99.90;;;;;;4863722;28;21104;-72
2021/01/08 13:34:26;;;;;;;10.83;8.57;;;3.80;99.90;;;;;;4857302;28;20657;-71
2021/01/08 13:37:11;;;;;;;9.83;7.30;;;3.70;99.90;;;;;;4859249;28;20973;-72
2021/01/08 13:39:55;;;;;;;9.97;8.33;;;3.70;99.90;;;;;;4857416;28;20681;-70
2021/01/08 13:42:39;;;;;;;10.70;8.70;;;3.70;99.90;;;;;;4854453;28;20656;-74
2021/01/08 13:45:24;;;;;;;10.40;7.77;;;3.50;99.90;;;;;;4852682;28;20610;-72
2021/01/08 13:48:08;;;;;;;12.30;8.73;;;3.50;99.90;;;;;;4856476;28;20718;-68
2021/01/08 13:50:53;;;;;;;10.17;7.87;;;3.50;99.90;;;;;;4903787;28;21145;-65
2021/01/08 13:53:37;;;;;;;10.87;7.77;;;3.50;99.90;;;;;;4851083;28;20658;-65
2021/01/08 13:56:27;;;;;;;11.20;8.87;;;3.40;99.90;;;;;;4861751;28;20644;-64
2021/01/08 13:59:11;;;;;;;11.80;8.50;;;3.40;99.90;;;;;;4864435;28;20597;-64
2021/01/08 14:01:57;;;;;;;11.03;7.97;;;3.40;99.90;;;;;;4857963;28;20734;-65
2021/01/08 14:04:42;;;;;;;11.37;8.53;;;3.30;99.90;;;;;;4859848;28;20794;-65
2021/01/08 14:07:26;;;;;;;9.53;7.70;;;3.40;99.90;;;;;;4864869;28;20594;-64
2021/01/08 14:10:11;;;;;;;11.03;8.30;;;3.40;99.90;;;;;;4861649;28;20661;-65
2021/01/08 14:12:56;;;;;;;9.90;7.70;;;3.40;99.90;;;;;;4860277;28;20670;-65
2021/01/08 14:15:40;;;;;;;9.57;7.20;;;3.40;99.90;;;;;;4866573;28;20737;-64
2021/01/08 14:18:25;;;;;;;10.33;8.03;;;3.40;99.90;;;;;;4864880;28;20957;-72
2021/01/08 14:21:09;;;;;;;9.57;7.50;;;3.50;99.90;;;;;;4861658;28;20711;-65
2021/01/08 14:23:54;;;;;;;10.57;7.63;;;3.40;99.90;;;;;;4854670;28;20742;-65
2021/01/08 14:26:38;;;;;;;8.90;7.67;;;3.40;99.90;;;;;;4854206;28;20598;-67
2021/01/08 14:29:23;;;;;;;10.50;8.03;;;3.40;99.90;;;;;;4846135;28;20674;-70